createdAt,value
2022-12-14T00:01:20.576Z,13.48
2022-12-14T00:03:48.297Z,14.32
2022-12-14T00:06:19.538Z,13.98
2022-12-14T00:08:48.370Z,14.02
2022-12-14T00:11:15.967Z,13.63
2022-12-14T00:13:43.593Z,13.52
2022-12-14T00:16:13.482Z,13.43
2022-12-14T00:18:40.802Z,13.52
2022-12-14T00:21:10.614Z,13.95
2022-12-14T00:23:39.343Z,13.85
2022-12-14T00:26:13.649Z,13.63
2022-12-14T00:28:41.586Z,12.77
2022-12-14T00:31:08.797Z,12.95
2022-12-14T00:33:35.794Z,13.38
2022-12-14T00:36:04.533Z,14.30
2022-12-14T00:38:31.446Z,13.10
2022-12-14T00:40:58.304Z,14.13
2022-12-14T00:43:25.140Z,15.00
2022-12-14T00:45:52.582Z,13.27
2022-12-14T00:48:20.424Z,15.02
2022-12-14T00:50:48.614Z,13.25
2022-12-14T00:53:16.533Z,15.45
2022-12-14T00:55:49.000Z,13.93
2022-12-14T00:58:18.615Z,13.65
2022-12-14T01:00:46.479Z,13.68
2022-12-14T01:03:13.552Z,13.23
2022-12-14T01:05:40.641Z,14.18
2022-12-14T01:08:07.805Z,15.38
2022-12-14T01:10:38.056Z,14.18
2022-12-14T01:13:04.690Z,14.05
2022-12-14T01:15:31.348Z,14.90
2022-12-14T01:17:57.964Z,14.13
2022-12-14T01:20:24.653Z,14.32
2022-12-14T01:22:55.478Z,14.55
2022-12-14T01:25:22.398Z,13.75
2022-12-14T01:27:50.373Z,14.32
2022-12-14T01:30:19.418Z,15.38
2022-12-14T01:32:47.026Z,14.55
2022-12-14T01:35:14.194Z,14.90
2022-12-14T01:37:40.853Z,13.80
2022-12-14T01:40:08.242Z,15.80
2022-12-14T01:42:36.224Z,15.40
2022-12-14T01:45:05.151Z,14.50
2022-12-14T01:47:40.341Z,15.05
2022-12-14T01:50:16.718Z,15.77
2022-12-14T01:55:12.850Z,14.80
2022-12-14T01:57:45.048Z,14.65
2022-12-14T02:00:14.366Z,16.25
2022-12-14T02:02:46.350Z,13.68
2022-12-14T02:05:14.148Z,15.55
2022-12-14T02:07:43.331Z,15.93
2022-12-14T02:10:16.584Z,15.00
2022-12-14T02:12:48.590Z,16.67
2022-12-14T02:15:16.557Z,16.08
2022-12-14T02:17:45.105Z,15.93
2022-12-14T02:20:14.261Z,15.98
2022-12-14T02:23:08.664Z,16.02
2022-12-14T02:25:36.311Z,15.32
2022-12-14T02:28:02.926Z,14.98
2022-12-14T02:30:35.076Z,17.20
2022-12-14T02:33:17.630Z,16.10
2022-12-14T02:35:51.210Z,16.30
2022-12-14T02:38:31.787Z,17.70
2022-12-14T02:41:13.760Z,16.33
2022-12-14T02:43:42.472Z,17.02
2022-12-14T02:46:20.501Z,16.20
2022-12-14T02:48:58.918Z,16.23
2022-12-14T02:51:45.644Z,16.17
2022-12-14T02:54:20.868Z,15.35
2022-12-14T02:56:54.170Z,17.13
2022-12-14T02:59:23.300Z,16.90
2022-12-14T03:01:52.186Z,16.08
2022-12-14T03:04:19.226Z,17.10
2022-12-14T03:07:02.784Z,16.10
2022-12-14T03:09:31.577Z,16.25
2022-12-14T03:12:07.197Z,16.30
2022-12-14T03:14:34.035Z,16.45
2022-12-14T03:17:07.691Z,16.75
2022-12-14T03:19:38.959Z,17.02
2022-12-14T03:22:17.224Z,16.23
2022-12-14T03:24:52.424Z,17.45
2022-12-14T03:27:34.487Z,15.98
2022-12-14T03:30:08.408Z,16.83
2022-12-14T03:32:40.590Z,16.92
2022-12-14T03:35:07.652Z,15.93
2022-12-14T03:37:35.319Z,17.05
2022-12-14T03:40:02.032Z,17.65
2022-12-14T03:42:32.882Z,16.50
2022-12-14T03:45:10.155Z,17.60
2022-12-14T03:48:04.542Z,16.10
2022-12-14T03:50:41.114Z,16.63
2022-12-14T03:53:14.622Z,17.15
2022-12-14T03:56:04.701Z,19.17
2022-12-14T03:59:01.944Z,17.40
2022-12-14T04:01:59.400Z,17.45
2022-12-14T04:04:30.838Z,18.08
2022-12-14T04:07:15.021Z,17.27
2022-12-14T04:09:59.993Z,18.10
2022-12-14T04:12:51.681Z,18.10
2022-12-14T04:15:39.988Z,16.67
2022-12-14T04:18:26.891Z,17.58
2022-12-14T04:21:03.783Z,17.95
2022-12-14T04:23:54.345Z,17.98
2022-12-14T04:26:27.546Z,17.10
2022-12-14T04:29:14.989Z,18.15
2022-12-14T04:31:49.121Z,17.83
2022-12-14T04:34:20.087Z,16.85
2022-12-14T04:36:51.855Z,19.23
2022-12-14T04:39:27.209Z,17.85
2022-12-14T04:41:56.626Z,18.47
2022-12-14T04:44:29.197Z,16.75
2022-12-14T04:46:57.908Z,17.48
2022-12-14T04:49:42.735Z,17.67
2022-12-14T04:52:18.208Z,17.10
2022-12-14T04:54:52.817Z,19.00
2022-12-14T04:57:31.854Z,17.35
2022-12-14T05:00:01.565Z,17.85
2022-12-14T05:02:44.463Z,17.58
2022-12-14T05:05:17.159Z,16.95
2022-12-14T05:07:53.572Z,17.92
2022-12-14T05:10:26.087Z,17.98
2022-12-14T05:13:07.913Z,19.02
2022-12-14T05:15:42.079Z,17.38
2022-12-14T05:18:09.204Z,18.60
2022-12-14T05:20:35.887Z,18.40
2022-12-14T05:23:02.521Z,19.40
2022-12-14T05:25:29.283Z,18.27
2022-12-14T05:27:56.414Z,18.45
2022-12-14T05:30:23.457Z,16.85
2022-12-14T05:32:50.285Z,16.63
2022-12-14T05:35:16.964Z,16.92
2022-12-14T05:37:43.641Z,16.55
2022-12-14T05:40:11.174Z,17.67
2022-12-14T05:42:42.759Z,16.73
2022-12-14T05:45:12.984Z,17.02
2022-12-14T05:47:39.916Z,16.42
2022-12-14T05:50:08.023Z,17.25
2022-12-14T05:52:35.168Z,17.20
2022-12-14T05:55:04.535Z,16.83
2022-12-14T05:57:32.167Z,17.73
2022-12-14T05:59:58.894Z,18.17
2022-12-14T06:02:25.910Z,16.92
2022-12-14T06:04:52.693Z,17.58
2022-12-14T06:07:24.492Z,17.40
2022-12-14T06:09:54.357Z,17.27
2022-12-14T06:12:21.271Z,18.60
2022-12-14T06:14:47.920Z,17.77
2022-12-14T06:17:14.594Z,18.35
2022-12-14T06:19:41.245Z,16.90
2022-12-14T06:22:08.132Z,18.27
2022-12-14T06:24:36.356Z,17.88
2022-12-14T06:27:03.181Z,18.17
2022-12-14T06:29:29.820Z,18.90
2022-12-14T06:31:56.464Z,19.17
2022-12-14T06:34:28.168Z,18.92
2022-12-14T06:36:55.422Z,18.48
2022-12-14T06:39:22.111Z,18.10
2022-12-14T06:41:51.103Z,18.33
2022-12-14T06:44:17.967Z,18.15
2022-12-14T06:46:45.010Z,19.23
2022-12-14T06:49:14.974Z,19.88
2022-12-14T06:51:42.314Z,18.60
2022-12-14T06:54:11.496Z,19.15
2022-12-14T06:56:38.751Z,17.45
2022-12-14T06:59:05.562Z,20.70
2022-12-14T07:01:32.729Z,18.30
2022-12-14T07:03:59.731Z,19.63
2022-12-14T07:06:28.651Z,19.67
2022-12-14T07:08:57.779Z,19.48
2022-12-14T07:11:26.257Z,20.08
2022-12-14T07:13:54.140Z,19.65
2022-12-14T07:16:25.105Z,20.48
2022-12-14T07:18:53.671Z,19.08
2022-12-14T07:21:21.263Z,20.67
2022-12-14T07:23:48.735Z,20.95
2022-12-14T07:26:21.591Z,20.88
2022-12-14T07:28:48.600Z,21.85
2022-12-14T07:31:18.761Z,21.08
2022-12-14T07:33:45.865Z,20.58
2022-12-14T07:36:15.941Z,20.73
2022-12-14T07:38:44.277Z,19.92
2022-12-14T07:41:12.430Z,20.95
2022-12-14T07:43:44.537Z,19.50
2022-12-14T07:46:20.273Z,20.27
2022-12-14T07:48:50.098Z,20.67
2022-12-14T07:51:20.180Z,21.60
2022-12-14T07:53:47.509Z,22.13
2022-12-14T07:56:17.033Z,21.75
2022-12-14T07:58:44.247Z,21.52
2022-12-14T08:01:13.650Z,21.58
2022-12-14T08:03:41.931Z,21.02
2022-12-14T08:06:10.549Z,21.25
2022-12-14T08:08:37.779Z,21.08
2022-12-14T08:11:05.251Z,20.60
2022-12-14T08:13:32.873Z,20.88
2022-12-14T08:16:10.738Z,19.38
2022-12-14T08:18:37.714Z,21.02
2022-12-14T08:21:06.438Z,20.33
2022-12-14T08:23:34.178Z,18.92
2022-12-14T08:26:02.624Z,19.65
2022-12-14T08:28:30.979Z,20.27
2022-12-14T08:31:02.938Z,21.00
2022-12-14T08:33:29.864Z,20.38
2022-12-14T08:35:56.715Z,21.73
2022-12-14T08:38:23.319Z,20.40
2022-12-14T08:40:49.940Z,19.67
2022-12-14T08:43:20.302Z,20.48
2022-12-14T08:45:50.089Z,21.45
2022-12-14T08:48:17.754Z,19.85
2022-12-14T08:50:44.425Z,20.60
2022-12-14T08:53:16.610Z,19.05
2022-12-14T08:55:43.940Z,20.83
2022-12-14T08:58:10.622Z,19.55
2022-12-14T09:00:38.762Z,19.02
2022-12-14T09:03:06.889Z,18.58
2022-12-14T09:05:35.134Z,16.92
2022-12-14T09:08:01.813Z,16.95
2022-12-14T09:10:28.501Z,17.70
2022-12-14T09:12:55.282Z,17.23
2022-12-14T09:15:22.058Z,17.30
2022-12-14T09:17:50.051Z,16.40
2022-12-14T09:20:17.544Z,17.23
2022-12-14T09:22:45.897Z,16.73
2022-12-14T09:25:12.775Z,16.67
2022-12-14T09:27:39.554Z,16.38
2022-12-14T09:30:06.542Z,16.67
2022-12-14T09:32:33.477Z,16.65
2022-12-14T09:35:00.182Z,16.45
2022-12-14T09:37:26.944Z,16.45
2022-12-14T09:39:53.717Z,16.27
2022-12-14T09:42:50.550Z,16.63
2022-12-14T09:48:04.242Z,16.52
2022-12-14T09:50:31.377Z,17.02
2022-12-14T09:53:02.786Z,17.33
2022-12-14T09:55:37.119Z,16.02
2022-12-14T09:58:06.889Z,15.45
2022-12-14T10:00:40.776Z,16.80
2022-12-14T10:03:08.864Z,15.60
2022-12-14T10:05:44.703Z,16.75
2022-12-14T10:08:26.976Z,16.13
2022-12-14T10:11:11.481Z,17.55
2022-12-14T10:13:47.062Z,15.82
2022-12-14T10:16:51.587Z,17.17
2022-12-14T10:19:18.806Z,15.80
2022-12-14T10:21:51.241Z,16.08
2022-12-14T10:24:23.921Z,17.60
2022-12-14T10:26:53.375Z,15.45
2022-12-14T10:29:39.957Z,17.23
2022-12-14T10:32:20.733Z,16.27
2022-12-14T10:34:48.311Z,16.65
2022-12-14T10:37:34.874Z,17.80
2022-12-14T10:40:33.721Z,16.63
2022-12-14T10:43:17.875Z,16.95
2022-12-14T10:45:56.594Z,17.60
2022-12-14T10:48:45.261Z,17.08
2022-12-14T10:51:17.140Z,17.65
2022-12-14T10:53:53.039Z,16.52
2022-12-14T10:56:26.096Z,17.40
2022-12-14T10:59:25.395Z,19.02
2022-12-14T11:01:59.799Z,18.35
2022-12-14T11:04:29.840Z,18.58
2022-12-14T11:06:59.688Z,19.63
2022-12-14T11:09:26.857Z,18.45
2022-12-14T11:12:17.406Z,19.15
2022-12-14T11:14:53.082Z,18.08
2022-12-14T11:17:39.612Z,18.20
2022-12-14T11:20:25.849Z,17.17
2022-12-14T11:22:55.953Z,17.92
2022-12-14T11:25:40.628Z,18.45
2022-12-14T11:28:38.511Z,17.95
2022-12-14T11:31:12.585Z,18.92
2022-12-14T11:33:41.447Z,17.13
2022-12-14T11:36:09.009Z,17.75
2022-12-14T11:38:35.964Z,18.60
2022-12-14T11:41:09.127Z,18.20
2022-12-14T11:43:39.007Z,18.65
2022-12-14T11:46:09.513Z,17.73
2022-12-14T11:48:39.388Z,18.08
2022-12-14T11:51:12.419Z,18.17
2022-12-14T11:53:39.799Z,17.50
2022-12-14T11:56:13.831Z,18.48
2022-12-14T11:58:48.957Z,18.08
2022-12-14T12:01:20.337Z,18.42
2022-12-14T12:03:50.824Z,19.58
2022-12-14T12:06:27.784Z,18.13
2022-12-14T12:08:57.073Z,18.58
2022-12-14T12:11:28.027Z,18.42
2022-12-14T12:14:06.548Z,18.80
2022-12-14T12:16:35.499Z,19.70
2022-12-14T12:19:12.350Z,18.88
2022-12-14T12:21:42.922Z,18.17
2022-12-14T12:24:38.784Z,16.90
2022-12-14T12:27:15.848Z,18.25
2022-12-14T12:29:50.760Z,17.50
2022-12-14T12:32:32.575Z,18.42
2022-12-14T12:35:17.192Z,17.42
2022-12-14T12:37:51.724Z,18.23
2022-12-14T12:40:29.159Z,18.35
2022-12-14T12:43:26.415Z,18.95
2022-12-14T12:45:59.512Z,18.42
2022-12-14T12:48:38.352Z,18.48
2022-12-14T12:51:12.869Z,18.70
2022-12-14T12:53:47.981Z,19.58
2022-12-14T12:56:23.386Z,19.23
2022-12-14T12:58:53.167Z,17.92
2022-12-14T13:01:27.838Z,18.25
2022-12-14T13:04:01.735Z,19.92
2022-12-14T13:06:33.307Z,20.27
2022-12-14T13:09:07.706Z,19.23
2022-12-14T13:11:39.662Z,19.77
2022-12-14T13:14:26.379Z,19.25
2022-12-14T13:16:55.016Z,20.05
2022-12-14T13:19:49.850Z,19.92
2022-12-14T13:22:24.849Z,19.73
2022-12-14T13:24:58.966Z,20.30
2022-12-14T13:28:01.645Z,20.58
2022-12-14T13:30:46.841Z,20.92
2022-12-14T13:33:29.916Z,20.77
2022-12-14T13:35:57.552Z,21.17
2022-12-14T13:38:45.833Z,20.73
2022-12-14T13:41:13.490Z,21.40
2022-12-14T13:43:55.439Z,21.23
2022-12-14T13:46:26.063Z,20.92
2022-12-14T13:48:58.793Z,21.08
2022-12-14T13:51:31.074Z,23.77
2022-12-14T13:53:59.617Z,22.08
2022-12-14T13:56:33.311Z,21.42
2022-12-14T13:59:03.047Z,21.65
2022-12-14T14:01:49.711Z,22.05
2022-12-14T14:04:18.582Z,22.20
2022-12-14T14:06:48.411Z,22.35
2022-12-14T14:09:31.328Z,23.15
2022-12-14T14:12:17.870Z,24.65
2022-12-14T14:14:52.068Z,24.75
2022-12-14T14:17:36.737Z,26.00
2022-12-14T14:20:23.800Z,23.27
2022-12-14T14:23:25.560Z,23.35
2022-12-14T14:26:10.257Z,23.33
2022-12-14T14:28:38.151Z,24.60
2022-12-14T14:31:05.557Z,22.92
2022-12-14T14:33:46.170Z,23.60
2022-12-14T14:36:23.293Z,23.10
2022-12-14T14:38:51.024Z,23.25
2022-12-14T14:41:27.062Z,23.88
2022-12-14T14:43:58.439Z,26.08
2022-12-14T14:46:42.764Z,25.17
2022-12-14T14:49:24.623Z,23.70
2022-12-14T14:51:51.372Z,24.48
2022-12-14T14:54:44.773Z,24.25
2022-12-14T14:57:33.344Z,23.65
2022-12-14T15:00:02.629Z,24.15
2022-12-14T15:02:41.200Z,26.25
2022-12-14T15:05:41.500Z,26.23
2022-12-14T15:08:05.381Z,23.27
2022-12-14T15:10:38.849Z,25.88
2022-12-14T15:13:16.901Z,26.65
2022-12-14T15:15:46.627Z,25.70
2022-12-14T15:18:20.579Z,27.88
2022-12-14T15:21:07.969Z,26.92
2022-12-14T15:23:39.693Z,26.70
2022-12-14T15:26:25.298Z,26.83
2022-12-14T15:28:58.292Z,27.58
2022-12-14T15:31:41.870Z,25.92
2022-12-14T15:34:16.454Z,27.40
2022-12-14T15:36:44.222Z,27.88
2022-12-14T15:39:27.919Z,27.92
2022-12-14T15:42:05.469Z,27.35
2022-12-14T15:44:32.217Z,26.52
2022-12-14T15:47:02.124Z,25.98
2022-12-14T15:49:28.981Z,27.13
2022-12-14T15:51:58.179Z,27.13
2022-12-14T15:54:26.157Z,27.02
2022-12-14T15:56:57.472Z,29.08
2022-12-14T15:59:31.231Z,28.35
2022-12-14T16:02:07.668Z,26.88
2022-12-14T16:04:37.085Z,28.30
2022-12-14T16:07:13.516Z,26.95
2022-12-14T16:12:28.618Z,25.70
2022-12-14T16:14:58.317Z,27.58
2022-12-14T16:17:40.447Z,26.25
2022-12-14T16:20:08.145Z,26.90
2022-12-14T16:22:39.269Z,26.00
2022-12-14T16:25:05.890Z,27.95
2022-12-14T16:27:36.137Z,27.30
2022-12-14T16:30:26.584Z,26.80
2022-12-14T16:33:20.203Z,27.63
2022-12-14T16:36:00.907Z,27.33
2022-12-14T16:38:28.259Z,28.58
2022-12-14T16:40:58.170Z,27.42
2022-12-14T16:43:35.595Z,27.02
2022-12-14T16:46:03.452Z,27.80
2022-12-14T16:48:32.358Z,27.70
2022-12-14T16:51:50.881Z,27.73
2022-12-14T16:54:25.392Z,30.00
2022-12-14T16:56:57.174Z,28.42
2022-12-14T16:59:45.986Z,28.38
2022-12-14T17:02:30.553Z,25.00
2022-12-14T17:05:00.102Z,27.17
2022-12-14T17:07:30.230Z,26.77
2022-12-14T17:09:57.203Z,27.13
2022-12-14T17:12:26.135Z,26.83
2022-12-14T17:14:53.937Z,27.67
2022-12-14T17:17:28.955Z,28.00
2022-12-14T17:19:55.638Z,29.48
2022-12-14T17:22:26.801Z,27.17
2022-12-14T17:24:54.005Z,27.95
2022-12-14T17:27:22.647Z,27.30
2022-12-14T17:29:49.689Z,29.45
2022-12-14T17:32:17.211Z,29.48
2022-12-14T17:34:45.557Z,30.00
2022-12-14T17:37:17.413Z,28.38
2022-12-14T17:39:44.440Z,29.73
2022-12-14T17:42:14.148Z,29.63
2022-12-14T17:44:44.108Z,29.38
2022-12-14T17:47:14.051Z,29.13
2022-12-14T17:49:42.329Z,32.42
2022-12-14T17:52:18.319Z,27.92
2022-12-14T17:54:45.554Z,27.48
2022-12-14T17:57:17.780Z,29.05
2022-12-14T17:59:47.504Z,28.83
2022-12-14T18:02:33.048Z,30.38
2022-12-14T18:04:59.955Z,28.05
2022-12-14T18:07:26.708Z,30.80
2022-12-14T18:09:54.422Z,29.27
2022-12-14T18:12:23.421Z,31.35
2022-12-14T18:14:50.415Z,31.17
2022-12-14T18:17:17.060Z,33.85
2022-12-14T18:19:43.685Z,33.30
2022-12-14T18:22:11.042Z,31.10
2022-12-14T18:24:37.749Z,30.35
2022-12-14T18:27:04.386Z,30.52
2022-12-14T18:29:31.018Z,31.38
2022-12-14T18:31:57.756Z,30.17
2022-12-14T18:34:24.481Z,30.85
2022-12-14T18:36:51.200Z,31.10
2022-12-14T18:39:18.329Z,32.53
2022-12-14T18:41:44.995Z,30.55
2022-12-14T18:44:11.657Z,31.05
2022-12-14T18:46:39.447Z,31.23
2022-12-14T18:49:06.134Z,32.10
2022-12-14T18:51:32.844Z,31.73
2022-12-14T18:54:00.633Z,31.13
2022-12-14T18:56:29.273Z,32.97
2022-12-14T18:58:56.332Z,32.33
2022-12-14T19:01:24.978Z,33.50
2022-12-14T19:03:51.970Z,32.53
2022-12-14T19:09:08.265Z,32.78
2022-12-14T19:11:40.153Z,31.92
2022-12-14T19:14:07.038Z,32.47
2022-12-14T19:16:34.202Z,31.92
2022-12-14T19:19:01.011Z,31.80
2022-12-14T19:21:29.723Z,34.05
2022-12-14T19:23:57.366Z,33.78
2022-12-14T19:26:24.176Z,32.28
2022-12-14T19:28:50.830Z,32.95
2022-12-14T19:31:20.883Z,33.15
2022-12-14T19:33:47.529Z,30.85
2022-12-14T19:36:14.207Z,31.42
2022-12-14T19:38:40.975Z,31.75
2022-12-14T19:41:11.401Z,30.42
2022-12-14T19:43:38.388Z,30.70
2022-12-14T19:46:07.139Z,34.08
2022-12-14T19:48:38.222Z,34.28
2022-12-14T19:51:07.780Z,34.20
2022-12-14T19:53:35.062Z,34.25
2022-12-14T19:56:02.108Z,35.38
2022-12-14T19:58:29.588Z,33.65
2022-12-14T20:00:56.678Z,33.35
2022-12-14T20:03:23.863Z,33.60
2022-12-14T20:05:53.807Z,33.20
2022-12-14T20:08:21.300Z,31.95
2022-12-14T20:10:48.966Z,33.58
2022-12-14T20:13:16.013Z,32.00
2022-12-14T20:15:48.973Z,33.58
2022-12-14T20:18:15.959Z,33.85
2022-12-14T20:20:42.919Z,35.97
2022-12-14T20:23:10.012Z,34.20
2022-12-14T20:25:36.638Z,36.30
2022-12-14T20:28:03.632Z,36.05
2022-12-14T20:30:30.742Z,35.65
2022-12-14T20:32:57.637Z,34.83
2022-12-14T20:35:24.263Z,33.88
2022-12-14T20:37:53.805Z,33.75
2022-12-14T20:40:20.440Z,34.42
2022-12-14T20:42:47.186Z,33.72
2022-12-14T20:45:13.798Z,37.45
2022-12-14T20:47:40.455Z,36.25
2022-12-14T20:50:07.135Z,34.30
2022-12-14T20:52:33.794Z,33.47
2022-12-14T20:55:00.435Z,32.75
2022-12-14T20:57:28.401Z,35.33
2022-12-14T20:59:54.988Z,33.72
2022-12-14T21:02:23.560Z,32.08
2022-12-14T21:04:50.457Z,33.17
2022-12-14T21:07:21.329Z,32.35
2022-12-14T21:09:51.016Z,30.85
2022-12-14T21:12:20.780Z,31.27
2022-12-14T21:14:52.509Z,32.00
2022-12-14T21:17:24.849Z,32.20
2022-12-14T21:19:51.964Z,29.52
2022-12-14T21:22:22.779Z,31.42
2022-12-14T21:25:06.632Z,31.23
2022-12-14T21:27:38.832Z,32.67
2022-12-14T21:30:07.507Z,31.10
2022-12-14T21:32:36.915Z,33.40
2022-12-14T21:35:04.447Z,35.00
2022-12-14T21:37:31.136Z,33.67
2022-12-14T21:39:57.867Z,33.10
2022-12-14T21:42:24.649Z,33.38
2022-12-14T21:44:52.842Z,34.20
2022-12-14T21:47:27.003Z,33.40
2022-12-14T21:49:54.377Z,34.83
2022-12-14T21:52:24.102Z,33.22
2022-12-14T21:54:50.834Z,34.30
2022-12-14T21:57:35.314Z,34.38
2022-12-14T22:00:02.535Z,33.55
2022-12-14T22:02:29.515Z,33.00
2022-12-14T22:04:56.453Z,33.70
2022-12-14T22:07:25.603Z,33.05
2022-12-14T22:09:52.292Z,33.10
2022-12-14T22:12:19.132Z,35.15
2022-12-14T22:14:45.876Z,34.10
2022-12-14T22:17:14.562Z,36.30
2022-12-14T22:19:41.360Z,34.00
2022-12-14T22:22:13.922Z,33.95
2022-12-14T22:24:40.998Z,34.33
2022-12-14T22:27:08.526Z,32.97
2022-12-14T22:29:35.112Z,32.28
2022-12-14T22:32:01.860Z,32.75
2022-12-14T22:34:28.540Z,33.05
2022-12-14T22:36:55.202Z,35.00
2022-12-14T22:39:21.859Z,35.45
2022-12-14T22:41:49.641Z,35.47
2022-12-14T22:44:16.293Z,35.85
2022-12-14T22:46:42.955Z,32.80
2022-12-14T22:49:15.301Z,32.53
2022-12-14T22:51:41.933Z,34.60
2022-12-14T22:54:08.598Z,35.08
2022-12-14T22:56:43.600Z,35.15
2022-12-14T22:59:18.452Z,34.30
2022-12-14T23:01:49.891Z,35.08
2022-12-14T23:04:17.958Z,34.90
2022-12-14T23:06:45.292Z,35.17
2022-12-14T23:09:27.145Z,35.30
2022-12-14T23:12:11.666Z,34.28
2022-12-14T23:14:54.537Z,35.33
2022-12-14T23:17:36.861Z,35.53
2022-12-14T23:20:19.622Z,35.58
2022-12-14T23:23:01.733Z,37.63
2022-12-14T23:25:43.770Z,37.60
2022-12-14T23:28:26.330Z,37.25
2022-12-14T23:31:08.485Z,38.80
2022-12-14T23:33:53.749Z,38.75
2022-12-14T23:36:37.308Z,41.35
2022-12-14T23:39:19.627Z,41.25
2022-12-14T23:42:01.710Z,40.83
2022-12-14T23:44:43.738Z,40.35
2022-12-14T23:47:25.804Z,38.67
2022-12-14T23:50:07.808Z,42.15
2022-12-14T23:52:49.880Z,42.30
2022-12-14T23:55:31.896Z,42.20
2022-12-14T23:58:14.404Z,41.00
